sensor_id;sensor_type;location;lat;lon;timestamp;P1;durP1;ratioP1;P2;durP2;ratioP2
13834;SDS011;6988;52.614;13.500;2023-07-13T00:01:21;4.37;;;2.30;;
13834;SDS011;6988;52.614;13.500;2023-07-13T00:06:13;4.37;;;2.57;;
13834;SDS011;6988;52.614;13.500;2023-07-13T00:11:06;4.37;;;2.40;;
13834;SDS011;6988;52.614;13.500;2023-07-13T00:15:58;3.70;;;2.77;;
13834;SDS011;6988;52.614;13.500;2023-07-13T00:20:52;4.60;;;2.83;;
13834;SDS011;6988;52.614;13.500;2023-07-13T00:25:44;3.50;;;2.47;;
13834;SDS011;6988;52.614;13.500;2023-07-13T00:30:36;3.57;;;2.70;;
13834;SDS011;6988;52.614;13.500;2023-07-13T00:35:31;5.20;;;2.63;;
13834;SDS011;6988;52.614;13.500;2023-07-13T00:40:24;4.27;;;2.70;;
13834;SDS011;6988;52.614;13.500;2023-07-13T00:51:00;5.97;;;2.77;;
13834;SDS011;6988;52.614;13.500;2023-07-13T00:55:55;4.53;;;2.73;;
13834;SDS011;6988;52.614;13.500;2023-07-13T01:00:48;4.90;;;2.97;;
13834;SDS011;6988;52.614;13.500;2023-07-13T01:05:42;6.37;;;3.37;;
13834;SDS011;6988;52.614;13.500;2023-07-13T01:10:34;4.13;;;2.63;;
13834;SDS011;6988;52.614;13.500;2023-07-13T01:15:36;4.97;;;3.03;;
13834;SDS011;6988;52.614;13.500;2023-07-13T01:20:32;3.67;;;3.10;;
13834;SDS011;6988;52.614;13.500;2023-07-13T01:25:27;6.40;;;3.83;;
13834;SDS011;6988;52.614;13.500;2023-07-13T01:30:19;6.03;;;3.33;;
13834;SDS011;6988;52.614;13.500;2023-07-13T01:35:11;6.53;;;3.23;;
13834;SDS011;6988;52.614;13.500;2023-07-13T01:40:04;4.40;;;3.90;;
13834;SDS011;6988;52.614;13.500;2023-07-13T01:45:00;5.13;;;2.90;;
13834;SDS011;6988;52.614;13.500;2023-07-13T01:49:54;3.40;;;3.10;;
13834;SDS011;6988;52.614;13.500;2023-07-13T01:54:46;4.70;;;3.20;;
13834;SDS011;6988;52.614;13.500;2023-07-13T01:59:41;5.00;;;2.93;;
13834;SDS011;6988;52.614;13.500;2023-07-13T02:04:34;6.17;;;3.07;;
13834;SDS011;6988;52.614;13.500;2023-07-13T02:09:26;4.87;;;3.57;;
13834;SDS011;6988;52.614;13.500;2023-07-13T02:14:17;4.50;;;2.90;;
13834;SDS011;6988;52.614;13.500;2023-07-13T02:19:09;4.30;;;3.50;;
13834;SDS011;6988;52.614;13.500;2023-07-13T02:24:03;5.97;;;3.47;;
13834;SDS011;6988;52.614;13.500;2023-07-13T02:28:56;5.43;;;3.40;;
13834;SDS011;6988;52.614;13.500;2023-07-13T02:33:47;5.17;;;3.30;;
13834;SDS011;6988;52.614;13.500;2023-07-13T02:38:39;4.57;;;3.00;;
13834;SDS011;6988;52.614;13.500;2023-07-13T02:43:32;4.37;;;3.20;;
13834;SDS011;6988;52.614;13.500;2023-07-13T02:48:25;5.33;;;3.30;;
13834;SDS011;6988;52.614;13.500;2023-07-13T02:53:17;3.83;;;3.20;;
13834;SDS011;6988;52.614;13.500;2023-07-13T02:58:09;6.10;;;3.60;;
13834;SDS011;6988;52.614;13.500;2023-07-13T03:03:02;7.07;;;3.50;;
13834;SDS011;6988;52.614;13.500;2023-07-13T03:07:54;6.43;;;4.20;;
13834;SDS011;6988;52.614;13.500;2023-07-13T03:12:46;4.43;;;3.10;;
13834;SDS011;6988;52.614;13.500;2023-07-13T03:17:47;5.57;;;3.63;;
13834;SDS011;6988;52.614;13.500;2023-07-13T03:22:41;4.63;;;3.83;;
13834;SDS011;6988;52.614;13.500;2023-07-13T03:27:33;6.60;;;4.17;;
13834;SDS011;6988;52.614;13.500;2023-07-13T03:32:26;7.47;;;4.53;;
13834;SDS011;6988;52.614;13.500;2023-07-13T03:37:18;6.30;;;4.50;;
13834;SDS011;6988;52.614;13.500;2023-07-13T03:42:11;6.03;;;3.93;;
13834;SDS011;6988;52.614;13.500;2023-07-13T03:47:03;5.93;;;4.00;;
13834;SDS011;6988;52.614;13.500;2023-07-13T03:51:59;6.43;;;4.20;;
13834;SDS011;6988;52.614;13.500;2023-07-13T03:56:51;8.93;;;4.60;;
13834;SDS011;6988;52.614;13.500;2023-07-13T04:01:46;6.60;;;3.80;;
13834;SDS011;6988;52.614;13.500;2023-07-13T04:06:38;6.60;;;3.87;;
13834;SDS011;6988;52.614;13.500;2023-07-13T04:11:30;4.97;;;3.80;;
13834;SDS011;6988;52.614;13.500;2023-07-13T04:16:24;5.87;;;4.30;;
13834;SDS011;6988;52.614;13.500;2023-07-13T04:21:19;6.40;;;4.20;;
13834;SDS011;6988;52.614;13.500;2023-07-13T04:26:11;5.87;;;4.17;;
13834;SDS011;6988;52.614;13.500;2023-07-13T04:31:04;5.47;;;4.23;;
13834;SDS011;6988;52.614;13.500;2023-07-13T04:35:56;8.93;;;4.43;;
13834;SDS011;6988;52.614;13.500;2023-07-13T04:40:50;7.67;;;4.43;;
13834;SDS011;6988;52.614;13.500;2023-07-13T04:45:42;5.43;;;4.00;;
13834;SDS011;6988;52.614;13.500;2023-07-13T04:50:35;7.17;;;3.80;;
13834;SDS011;6988;52.614;13.500;2023-07-13T04:55:28;8.80;;;3.90;;
13834;SDS011;6988;52.614;13.500;2023-07-13T05:00:22;4.90;;;3.60;;
13834;SDS011;6988;52.614;13.500;2023-07-13T05:05:14;5.97;;;3.07;;
13834;SDS011;6988;52.614;13.500;2023-07-13T05:10:06;3.47;;;3.13;;
13834;SDS011;6988;52.614;13.500;2023-07-13T05:14:59;6.37;;;3.80;;
13834;SDS011;6988;52.614;13.500;2023-07-13T05:19:53;7.17;;;4.07;;
13834;SDS011;6988;52.614;13.500;2023-07-13T05:24:45;5.93;;;3.57;;
13834;SDS011;6988;52.614;13.500;2023-07-13T05:29:37;6.37;;;3.80;;
13834;SDS011;6988;52.614;13.500;2023-07-13T05:34:29;6.90;;;4.50;;
13834;SDS011;6988;52.614;13.500;2023-07-13T05:39:22;6.87;;;4.30;;
13834;SDS011;6988;52.614;13.500;2023-07-13T05:44:14;6.03;;;3.63;;
13834;SDS011;6988;52.614;13.500;2023-07-13T05:49:06;5.50;;;3.20;;
13834;SDS011;6988;52.614;13.500;2023-07-13T05:53:59;5.07;;;3.20;;
13834;SDS011;6988;52.614;13.500;2023-07-13T05:58:53;4.73;;;3.17;;
13834;SDS011;6988;52.614;13.500;2023-07-13T06:03:45;4.97;;;2.93;;
13834;SDS011;6988;52.614;13.500;2023-07-13T06:08:38;3.73;;;2.90;;
13834;SDS011;6988;52.614;13.500;2023-07-13T06:13:30;3.47;;;2.73;;
13834;SDS011;6988;52.614;13.500;2023-07-13T06:18:24;6.03;;;2.83;;
13834;SDS011;6988;52.614;13.500;2023-07-13T06:23:16;5.97;;;2.60;;
13834;SDS011;6988;52.614;13.500;2023-07-13T06:28:08;6.90;;;2.80;;
13834;SDS011;6988;52.614;13.500;2023-07-13T06:33:00;4.30;;;2.50;;
13834;SDS011;6988;52.614;13.500;2023-07-13T06:37:53;4.33;;;2.10;;
13834;SDS011;6988;52.614;13.500;2023-07-13T06:42:45;4.60;;;2.13;;
13834;SDS011;6988;52.614;13.500;2023-07-13T06:47:37;4.03;;;1.93;;
13834;SDS011;6988;52.614;13.500;2023-07-13T06:52:29;5.00;;;1.93;;
13834;SDS011;6988;52.614;13.500;2023-07-13T06:57:22;2.93;;;1.83;;
13834;SDS011;6988;52.614;13.500;2023-07-13T07:02:14;4.63;;;2.90;;
13834;SDS011;6988;52.614;13.500;2023-07-13T07:07:06;5.47;;;2.13;;
13834;SDS011;6988;52.614;13.500;2023-07-13T07:11:58;3.70;;;2.20;;
13834;SDS011;6988;52.614;13.500;2023-07-13T07:16:51;3.67;;;2.10;;
13834;SDS011;6988;52.614;13.500;2023-07-13T07:21:43;4.17;;;2.10;;
13834;SDS011;6988;52.614;13.500;2023-07-13T07:26:35;3.50;;;1.58;;
13834;SDS011;6988;52.614;13.500;2023-07-13T07:31:27;2.47;;;1.35;;
13834;SDS011;6988;52.614;13.500;2023-07-13T07:36:20;2.92;;;1.20;;
13834;SDS011;6988;52.614;13.500;2023-07-13T07:41:12;3.53;;;1.30;;
13834;SDS011;6988;52.614;13.500;2023-07-13T07:46:04;2.17;;;1.05;;
13834;SDS011;6988;52.614;13.500;2023-07-13T07:50:56;1.55;;;0.80;;
13834;SDS011;6988;52.614;13.500;2023-07-13T07:55:49;2.33;;;1.08;;
13834;SDS011;6988;52.614;13.500;2023-07-13T08:00:42;1.52;;;1.00;;
13834;SDS011;6988;52.614;13.500;2023-07-13T08:05:34;3.53;;;1.20;;
13834;SDS011;6988;52.614;13.500;2023-07-13T08:10:27;2.30;;;1.00;;
13834;SDS011;6988;52.614;13.500;2023-07-13T08:15:21;2.08;;;1.08;;
13834;SDS011;6988;52.614;13.500;2023-07-13T08:20:13;1.90;;;1.00;;
13834;SDS011;6988;52.614;13.500;2023-07-13T08:25:06;2.60;;;1.05;;
13834;SDS011;6988;52.614;13.500;2023-07-13T08:29:58;1.70;;;0.93;;
13834;SDS011;6988;52.614;13.500;2023-07-13T08:34:52;1.92;;;1.00;;
13834;SDS011;6988;52.614;13.500;2023-07-13T08:39:44;1.80;;;1.20;;
13834;SDS011;6988;52.614;13.500;2023-07-13T08:44:37;2.35;;;1.05;;
13834;SDS011;6988;52.614;13.500;2023-07-13T08:49:41;3.30;;;1.30;;
13834;SDS011;6988;52.614;13.500;2023-07-13T08:54:38;1.70;;;1.10;;
13834;SDS011;6988;52.614;13.500;2023-07-13T08:59:37;3.45;;;1.30;;
13834;SDS011;6988;52.614;13.500;2023-07-13T09:04:30;5.00;;;1.10;;
13834;SDS011;6988;52.614;13.500;2023-07-13T09:09:30;3.33;;;1.17;;
13834;SDS011;6988;52.614;13.500;2023-07-13T09:14:42;3.13;;;1.27;;
13834;SDS011;6988;52.614;13.500;2023-07-13T09:19:39;3.30;;;1.10;;
13834;SDS011;6988;52.614;13.500;2023-07-13T09:24:38;2.20;;;1.00;;
13834;SDS011;6988;52.614;13.500;2023-07-13T09:29:54;2.17;;;1.20;;
13834;SDS011;6988;52.614;13.500;2023-07-13T09:34:59;2.20;;;1.15;;
13834;SDS011;6988;52.614;13.500;2023-07-13T09:39:54;2.28;;;1.33;;
13834;SDS011;6988;52.614;13.500;2023-07-13T09:44:53;3.05;;;1.40;;
13834;SDS011;6988;52.614;13.500;2023-07-13T09:49:48;5.30;;;1.70;;
13834;SDS011;6988;52.614;13.500;2023-07-13T09:54:49;2.33;;;1.33;;
13834;SDS011;6988;52.614;13.500;2023-07-13T09:59:50;3.75;;;1.35;;
13834;SDS011;6988;52.614;13.500;2023-07-13T10:04:46;3.40;;;1.20;;
13834;SDS011;6988;52.614;13.500;2023-07-13T10:09:51;3.90;;;1.92;;
13834;SDS011;6988;52.614;13.500;2023-07-13T10:14:44;2.78;;;1.58;;
13834;SDS011;6988;52.614;13.500;2023-07-13T10:19:38;3.05;;;1.52;;
13834;SDS011;6988;52.614;13.500;2023-07-13T10:24:35;2.10;;;1.45;;
13834;SDS011;6988;52.614;13.500;2023-07-13T10:29:29;3.25;;;1.40;;
13834;SDS011;6988;52.614;13.500;2023-07-13T10:34:27;5.53;;;1.58;;
13834;SDS011;6988;52.614;13.500;2023-07-13T10:39:23;2.30;;;1.58;;
13834;SDS011;6988;52.614;13.500;2023-07-13T10:44:20;3.80;;;2.00;;
13834;SDS011;6988;52.614;13.500;2023-07-13T10:49:18;4.55;;;1.90;;
13834;SDS011;6988;52.614;13.500;2023-07-13T10:54:16;3.47;;;1.98;;
13834;SDS011;6988;52.614;13.500;2023-07-13T10:59:16;4.53;;;1.60;;
13834;SDS011;6988;52.614;13.500;2023-07-13T11:04:18;8.23;;;1.90;;
13834;SDS011;6988;52.614;13.500;2023-07-13T11:09:24;2.17;;;1.73;;
13834;SDS011;6988;52.614;13.500;2023-07-13T11:14:33;2.78;;;1.70;;
13834;SDS011;6988;52.614;13.500;2023-07-13T11:19:39;2.55;;;1.70;;
13834;SDS011;6988;52.614;13.500;2023-07-13T11:24:47;5.43;;;2.13;;
13834;SDS011;6988;52.614;13.500;2023-07-13T11:29:52;4.00;;;2.00;;
13834;SDS011;6988;52.614;13.500;2023-07-13T11:34:59;3.33;;;2.00;;
13834;SDS011;6988;52.614;13.500;2023-07-13T11:39:51;2.58;;;1.70;;
13834;SDS011;6988;52.614;13.500;2023-07-13T11:44:46;4.85;;;1.92;;
13834;SDS011;6988;52.614;13.500;2023-07-13T11:49:42;3.80;;;1.65;;
13834;SDS011;6988;52.614;13.500;2023-07-13T11:54:43;3.13;;;1.77;;
13834;SDS011;6988;52.614;13.500;2023-07-13T11:59:45;3.80;;;2.30;;
13834;SDS011;6988;52.614;13.500;2023-07-13T12:04:37;5.03;;;2.20;;
13834;SDS011;6988;52.614;13.500;2023-07-13T12:09:32;3.28;;;2.08;;
13834;SDS011;6988;52.614;13.500;2023-07-13T12:14:26;5.25;;;2.00;;
13834;SDS011;6988;52.614;13.500;2023-07-13T12:19:20;4.90;;;2.17;;
13834;SDS011;6988;52.614;13.500;2023-07-13T12:24:15;5.78;;;2.00;;
13834;SDS011;6988;52.614;13.500;2023-07-13T12:29:13;5.10;;;1.63;;
13834;SDS011;6988;52.614;13.500;2023-07-13T12:34:09;2.30;;;1.60;;
13834;SDS011;6988;52.614;13.500;2023-07-13T12:39:11;2.85;;;1.63;;
13834;SDS011;6988;52.614;13.500;2023-07-13T12:44:09;3.22;;;1.70;;
13834;SDS011;6988;52.614;13.500;2023-07-13T12:49:06;5.55;;;1.77;;
13834;SDS011;6988;52.614;13.500;2023-07-13T12:54:05;3.08;;;1.75;;
13834;SDS011;6988;52.614;13.500;2023-07-13T12:59:08;4.80;;;2.05;;
13834;SDS011;6988;52.614;13.500;2023-07-13T13:04:11;3.03;;;1.95;;
13834;SDS011;6988;52.614;13.500;2023-07-13T13:09:05;4.22;;;1.88;;
13834;SDS011;6988;52.614;13.500;2023-07-13T13:14:04;3.72;;;1.80;;
13834;SDS011;6988;52.614;13.500;2023-07-13T13:18:59;2.63;;;1.42;;
13834;SDS011;6988;52.614;13.500;2023-07-13T13:24:04;4.32;;;1.85;;
13834;SDS011;6988;52.614;13.500;2023-07-13T13:29:04;2.83;;;1.52;;
13834;SDS011;6988;52.614;13.500;2023-07-13T13:34:06;3.08;;;1.70;;
13834;SDS011;6988;52.614;13.500;2023-07-13T13:39:02;3.40;;;1.77;;
13834;SDS011;6988;52.614;13.500;2023-07-13T13:43:56;2.38;;;1.70;;
13834;SDS011;6988;52.614;13.500;2023-07-13T13:48:48;4.60;;;1.58;;
13834;SDS011;6988;52.614;13.500;2023-07-13T13:53:42;3.75;;;1.70;;
13834;SDS011;6988;52.614;13.500;2023-07-13T13:58:34;8.57;;;1.50;;
13834;SDS011;6988;52.614;13.500;2023-07-13T14:03:26;4.15;;;1.50;;
13834;SDS011;6988;52.614;13.500;2023-07-13T14:08:19;3.83;;;1.60;;
13834;SDS011;6988;52.614;13.500;2023-07-13T14:13:16;5.03;;;1.52;;
13834;SDS011;6988;52.614;13.500;2023-07-13T14:18:12;6.43;;;1.50;;
13834;SDS011;6988;52.614;13.500;2023-07-13T14:23:07;3.80;;;1.15;;
13834;SDS011;6988;52.614;13.500;2023-07-13T14:27:59;2.97;;;1.23;;
13834;SDS011;6988;52.614;13.500;2023-07-13T14:33:04;4.53;;;1.50;;
13834;SDS011;6988;52.614;13.500;2023-07-13T14:37:59;3.00;;;1.35;;
13834;SDS011;6988;52.614;13.500;2023-07-13T14:42:51;4.07;;;1.30;;
13834;SDS011;6988;52.614;13.500;2023-07-13T14:47:43;3.25;;;1.40;;
13834;SDS011;6988;52.614;13.500;2023-07-13T14:52:37;4.25;;;1.42;;
13834;SDS011;6988;52.614;13.500;2023-07-13T14:57:29;1.92;;;1.17;;
13834;SDS011;6988;52.614;13.500;2023-07-13T15:02:23;4.00;;;1.23;;
13834;SDS011;6988;52.614;13.500;2023-07-13T15:07:20;1.95;;;1.30;;
13834;SDS011;6988;52.614;13.500;2023-07-13T15:12:14;4.70;;;1.30;;
13834;SDS011;6988;52.614;13.500;2023-07-13T15:17:08;2.97;;;0.93;;
13834;SDS011;6988;52.614;13.500;2023-07-13T15:22:22;4.07;;;1.00;;
13834;SDS011;6988;52.614;13.500;2023-07-13T15:27:16;2.08;;;1.00;;
13834;SDS011;6988;52.614;13.500;2023-07-13T15:32:08;4.70;;;1.00;;
13834;SDS011;6988;52.614;13.500;2023-07-13T15:37:07;2.38;;;0.90;;
13834;SDS011;6988;52.614;13.500;2023-07-13T15:42:05;2.83;;;0.77;;
13834;SDS011;6988;52.614;13.500;2023-07-13T15:47:08;1.10;;;0.90;;
13834;SDS011;6988;52.614;13.500;2023-07-13T15:52:03;2.85;;;1.00;;
13834;SDS011;6988;52.614;13.500;2023-07-13T15:56:56;2.30;;;0.90;;
13834;SDS011;6988;52.614;13.500;2023-07-13T16:01:53;2.03;;;1.00;;
13834;SDS011;6988;52.614;13.500;2023-07-13T16:06:46;2.75;;;1.00;;
13834;SDS011;6988;52.614;13.500;2023-07-13T16:11:39;2.03;;;0.90;;
13834;SDS011;6988;52.614;13.500;2023-07-13T16:16:32;6.30;;;1.27;;
13834;SDS011;6988;52.614;13.500;2023-07-13T16:21:26;2.55;;;1.10;;
13834;SDS011;6988;52.614;13.500;2023-07-13T16:26:27;3.72;;;1.13;;
13834;SDS011;6988;52.614;13.500;2023-07-13T16:31:31;1.48;;;0.93;;
13834;SDS011;6988;52.614;13.500;2023-07-13T16:36:24;2.67;;;1.13;;
13834;SDS011;6988;52.614;13.500;2023-07-13T16:41:18;2.60;;;1.00;;
13834;SDS011;6988;52.614;13.500;2023-07-13T16:46:11;4.25;;;1.08;;
13834;SDS011;6988;52.614;13.500;2023-07-13T16:51:09;2.95;;;1.25;;
13834;SDS011;6988;52.614;13.500;2023-07-13T16:56:01;3.22;;;1.00;;
13834;SDS011;6988;52.614;13.500;2023-07-13T17:00:55;2.70;;;1.20;;
13834;SDS011;6988;52.614;13.500;2023-07-13T17:05:49;3.28;;;1.10;;
13834;SDS011;6988;52.614;13.500;2023-07-13T17:10:42;16.02;;;2.40;;
13834;SDS011;6988;52.614;13.500;2023-07-13T17:15:35;8.65;;;1.90;;
13834;SDS011;6988;52.614;13.500;2023-07-13T17:20:29;17.05;;;2.30;;
13834;SDS011;6988;52.614;13.500;2023-07-13T17:25:28;7.13;;;2.00;;
13834;SDS011;6988;52.614;13.500;2023-07-13T17:30:21;3.53;;;1.50;;
13834;SDS011;6988;52.614;13.500;2023-07-13T17:35:15;4.53;;;1.77;;
13834;SDS011;6988;52.614;13.500;2023-07-13T17:40:15;3.70;;;1.40;;
13834;SDS011;6988;52.614;13.500;2023-07-13T17:45:10;5.33;;;1.50;;
13834;SDS011;6988;52.614;13.500;2023-07-13T17:50:09;4.18;;;2.17;;
13834;SDS011;6988;52.614;13.500;2023-07-13T17:55:04;4.27;;;2.10;;
13834;SDS011;6988;52.614;13.500;2023-07-13T18:00:05;4.97;;;1.90;;
13834;SDS011;6988;52.614;13.500;2023-07-13T18:05:18;6.57;;;1.83;;
13834;SDS011;6988;52.614;13.500;2023-07-13T18:10:12;3.97;;;2.00;;
13834;SDS011;6988;52.614;13.500;2023-07-13T18:15:07;3.37;;;1.80;;
13834;SDS011;6988;52.614;13.500;2023-07-13T18:20:01;4.10;;;2.37;;
13834;SDS011;6988;52.614;13.500;2023-07-13T18:25:05;3.93;;;1.93;;
13834;SDS011;6988;52.614;13.500;2023-07-13T18:30:04;2.83;;;1.90;;
13834;SDS011;6988;52.614;13.500;2023-07-13T18:34:58;2.90;;;1.93;;
13834;SDS011;6988;52.614;13.500;2023-07-13T18:39:51;2.70;;;2.00;;
13834;SDS011;6988;52.614;13.500;2023-07-13T18:44:45;3.70;;;2.30;;
13834;SDS011;6988;52.614;13.500;2023-07-13T18:49:37;2.20;;;1.77;;
13834;SDS011;6988;52.614;13.500;2023-07-13T18:54:29;4.90;;;2.27;;
13834;SDS011;6988;52.614;13.500;2023-07-13T18:59:23;2.53;;;1.93;;
13834;SDS011;6988;52.614;13.500;2023-07-13T19:04:27;3.00;;;1.63;;
13834;SDS011;6988;52.614;13.500;2023-07-13T19:09:21;3.80;;;2.10;;
13834;SDS011;6988;52.614;13.500;2023-07-13T19:14:16;2.20;;;1.70;;
13834;SDS011;6988;52.614;13.500;2023-07-13T19:19:12;2.87;;;1.67;;
13834;SDS011;6988;52.614;13.500;2023-07-13T19:24:08;2.63;;;1.80;;
13834;SDS011;6988;52.614;13.500;2023-07-13T19:29:11;2.13;;;1.90;;
13834;SDS011;6988;52.614;13.500;2023-07-13T19:34:12;3.40;;;1.80;;
13834;SDS011;6988;52.614;13.500;2023-07-13T19:39:15;2.80;;;2.10;;
13834;SDS011;6988;52.614;13.500;2023-07-13T19:44:17;3.07;;;1.80;;
13834;SDS011;6988;52.614;13.500;2023-07-13T19:49:11;3.07;;;2.30;;
13834;SDS011;6988;52.614;13.500;2023-07-13T19:54:09;3.30;;;2.20;;
13834;SDS011;6988;52.614;13.500;2023-07-13T19:59:10;4.37;;;2.43;;
13834;SDS011;6988;52.614;13.500;2023-07-13T20:04:13;6.90;;;3.20;;
13834;SDS011;6988;52.614;13.500;2023-07-13T20:09:08;3.37;;;2.70;;
13834;SDS011;6988;52.614;13.500;2023-07-13T20:14:14;4.17;;;2.93;;
13834;SDS011;6988;52.614;13.500;2023-07-13T20:19:10;3.37;;;2.70;;
13834;SDS011;6988;52.614;13.500;2023-07-13T20:24:07;4.53;;;2.70;;
13834;SDS011;6988;52.614;13.500;2023-07-13T20:29:07;4.60;;;3.07;;
13834;SDS011;6988;52.614;13.500;2023-07-13T20:33:58;4.97;;;2.93;;
13834;SDS011;6988;52.614;13.500;2023-07-13T20:38:52;5.43;;;3.23;;
13834;SDS011;6988;52.614;13.500;2023-07-13T20:43:46;4.77;;;2.60;;
13834;SDS011;6988;52.614;13.500;2023-07-13T20:48:39;4.17;;;3.30;;
13834;SDS011;6988;52.614;13.500;2023-07-13T20:53:37;3.90;;;3.23;;
13834;SDS011;6988;52.614;13.500;2023-07-13T20:58:29;4.83;;;3.10;;
13834;SDS011;6988;52.614;13.500;2023-07-13T21:03:23;6.17;;;3.03;;
13834;SDS011;6988;52.614;13.500;2023-07-13T21:08:19;5.70;;;2.93;;
13834;SDS011;6988;52.614;13.500;2023-07-13T21:13:14;4.43;;;3.50;;
13834;SDS011;6988;52.614;13.500;2023-07-13T21:18:13;4.40;;;2.80;;
13834;SDS011;6988;52.614;13.500;2023-07-13T21:23:12;6.17;;;3.70;;
13834;SDS011;6988;52.614;13.500;2023-07-13T21:28:18;4.53;;;3.20;;
13834;SDS011;6988;52.614;13.500;2023-07-13T21:33:11;4.03;;;3.30;;
13834;SDS011;6988;52.614;13.500;2023-07-13T21:38:08;3.77;;;3.40;;
13834;SDS011;6988;52.614;13.500;2023-07-13T21:43:11;3.63;;;3.30;;
13834;SDS011;6988;52.614;13.500;2023-07-13T22:04:20;5.80;;;3.40;;
13834;SDS011;6988;52.614;13.500;2023-07-13T22:09:15;5.50;;;3.63;;
13834;SDS011;6988;52.614;13.500;2023-07-13T22:14:11;4.93;;;3.33;;
13834;SDS011;6988;52.614;13.500;2023-07-13T22:19:08;5.97;;;4.03;;
13834;SDS011;6988;52.614;13.500;2023-07-13T22:24:08;4.40;;;4.00;;
13834;SDS011;6988;52.614;13.500;2023-07-13T22:29:10;6.53;;;4.00;;
13834;SDS011;6988;52.614;13.500;2023-07-13T22:34:04;5.30;;;4.00;;
13834;SDS011;6988;52.614;13.500;2023-07-13T22:39:02;7.03;;;3.67;;
13834;SDS011;6988;52.614;13.500;2023-07-13T22:43:57;5.53;;;3.90;;
13834;SDS011;6988;52.614;13.500;2023-07-13T22:48:53;5.93;;;3.67;;
13834;SDS011;6988;52.614;13.500;2023-07-13T22:53:47;5.07;;;3.43;;
13834;SDS011;6988;52.614;13.500;2023-07-13T22:58:41;5.47;;;3.37;;
13834;SDS011;6988;52.614;13.500;2023-07-13T23:03:34;3.93;;;3.40;;
13834;SDS011;6988;52.614;13.500;2023-07-13T23:08:28;4.67;;;3.00;;
13834;SDS011;6988;52.614;13.500;2023-07-13T23:13:21;5.27;;;3.60;;
13834;SDS011;6988;52.614;13.500;2023-07-13T23:18:13;3.67;;;3.30;;
13834;SDS011;6988;52.614;13.500;2023-07-13T23:23:10;4.30;;;3.33;;
13834;SDS011;6988;52.614;13.500;2023-07-13T23:28:05;6.73;;;3.47;;
13834;SDS011;6988;52.614;13.500;2023-07-13T23:32:58;5.73;;;3.60;;
13834;SDS011;6988;52.614;13.500;2023-07-13T23:37:54;5.00;;;3.50;;
13834;SDS011;6988;52.614;13.500;2023-07-13T23:42:47;5.27;;;3.33;;
13834;SDS011;6988;52.614;13.500;2023-07-13T23:47:40;5.87;;;3.50;;
13834;SDS011;6988;52.614;13.500;2023-07-13T23:52:34;3.90;;;3.03;;
13834;SDS011;6988;52.614;13.500;2023-07-13T23:57:26;6.53;;;3.73;;
